Airfield :
LOGIN :

Register | Disclaimer

   EN    FR    IT 

 










Legend :    VFR   Marginal VFR   IFR   Intensive IFR   Very Intensive IFR
Visi :
Ceiling :
>= 8 km
>= 3000ft
5 to 8 km
1000 to 3000 ft
1500m to 5 km
500 to 1000 ft
800 to 1500m
200 to 500 ft
< 800m
< 200 ft
Symbols :   Thunderstorms  Fog  Heavy snow  Heavy precipitations  Wind > 20 kt
SIGMETs :     Misc.  Thunderstorms  Icing  Turbulence  Mountain Waves  Volcanic Ashes







- Airport Elevation : 309 ft
- IATA code : FNI
- Download approach charts


LFTW - Nîmes Garons

CURRENT METAR :
  • 270830Z AUTO VRB02KT CAVOK 28/16 Q1009 BECMG 20012KT

EXPIRED METARs :
  • 270800Z AUTO VRB02KT CAVOK 27/17 Q1009 NOSIG
  • 270730Z AUTO VRB02KT CAVOK 26/17 Q1009 NOSIG
  • 270700Z AUTO VRB03KT CAVOK 24/17 Q1009 NOSIG
  • 270630Z AUTO 34003KT 290V020 CAVOK 24/17 Q1009 NOSIG
  • 270600Z AUTO VRB03KT CAVOK 22/17 Q1009 NOSIG

TAF TAF LFTW
Valid from the 27 at 09:00 until the 28 at 09:00 UTC


270800Z 2709/2809 VRB02KT CAVOK
BECMG 2710/2712 20012KT
TEMPO 2718/2723 1200 TSRA BR BKN013CB
PROB40
TEMPO 2718/2723 VRB30G45KT 0200 TSGR FG SQ BKN003CB
BECMG 2723/2801 VRB02KT
TEMPO 2807/2809 BKN030TCU
No reported NOTAMs for that airfield.



MET'MAP, your aeronautical weather chart ! - Copyright ORBIFLY December 2007 - Disclaimer

ORBIFLY MET'MAP TEAM :

Programming & Development : Alexandra Zaïnal
Concept & Development : Baudouin d'Aumeries
Co-Development & Prog : Marc-Olivier Méhu
Technical & hardware support : Manuel Goepfert

Contact : metmap@orbifly.com




SOURCES & CREDITS :

   NOAA